Lockport-Weather Station Historical Data
 
Daily Summary for February 25, 2021 Units:  English    Metric   Both
Daily Weekly Monthly Yearly Custom
  Current: High: Low: Average:
Temperature: 28.3 °F 36.8 °F 28.2 °F 31.7 °F
Dew Point: 22.3 °F 27.1 °F 20.3 °F 22.7 °F
Humidity: 78% 80% 52.3% 70%
Wind Speed: 3.6mph 6.1mph 0.2mph 3.8mph
Wind Gust: 7mph 18mph - -
WindSSW - - WSW
Pressure: 30.30 in 30.30 in 30.00 in -
Precipitation: 0.00 in      
 
 
Tabular Data for February 25, 2021
Time Temperature Dew Point Pressure Wind Wind Speed Wind Gust Humidity Rainfall Rate (Hourly) solar
00:04 33.9 °F 26.8 °F 30.00 in WNW 6.1 mph 14 mph 75% 0.00 in W/m2
00:09 33.8 °F 26.9 °F 30.01 in West 4.1 mph 14 mph 75.5% 0.00 in W/m2
00:14 33.7 °F 26.9 °F 30.01 in WNW 5.2 mph 14 mph 76% 0.00 in W/m2
00:19 33.7 °F 26.9 °F 30.02 in WNW 4.2 mph 9 mph 76% 0.00 in W/m2
00:24 33.6 °F 27.1 °F 30.02 in WNW 3.5 mph 10 mph 76.8% 0.00 in W/m2
00:29 33.5 °F 27.1 °F 30.02 in WNW 3.9 mph 10 mph 77% 0.00 in W/m2
00:34 33.5 °F 27.1 °F 30.03 in West 3.9 mph 10 mph 77% 0.00 in W/m2
00:39 33.3 °F 26.9 °F 30.03 in WNW 3 mph 9 mph 77% 0.00 in W/m2
00:44 33.2 °F 26.8 °F 30.03 in WNW 4.5 mph 10 mph 77% 0.00 in W/m2
00:49 33.1 °F 26.7 °F 30.04 in WNW 4 mph 10 mph 77% 0.00 in W/m2
00:54 33 °F 26.6 °F 30.04 in WNW 3.2 mph 10 mph 77% 0.00 in W/m2
00:59 32.9 °F 26.5 °F 30.04 in West 3.5 mph 10 mph 77% 0.00 in W/m2
01:04 32.8 °F 26.2 °F 30.04 in West 2.2 mph 7 mph 76.3% 0.00 in W/m2
01:09 32.7 °F 26.3 °F 30.05 in WNW 2.6 mph 7 mph 77% 0.00 in W/m2
01:14 32.8 °F 26.4 °F 30.05 in West 2.8 mph 7 mph 77% 0.00 in W/m2
01:19 32.8 °F 26.4 °F 30.06 in West 3.4 mph 7 mph 77% 0.00 in W/m2
01:24 32.8 °F 26.4 °F 30.06 in WNW 2.1 mph 7 mph 77% 0.00 in W/m2
01:29 32.8 °F 26.4 °F 30.07 in West 2.6 mph 7 mph 77% 0.00 in W/m2
01:34 32.7 °F 26.5 °F 30.07 in West 2 mph 5 mph 77.4% 0.00 in W/m2
01:39 32.7 °F 26.4 °F 30.07 in West 3.9 mph 11 mph 77.3% 0.00 in W/m2
01:44 32.6 °F 26.2 °F 30.08 in West 3.7 mph 11 mph 77% 0.00 in W/m2
01:49 32.5 °F 25.9 °F 30.08 in West 3.9 mph 11 mph 76.1% 0.00 in W/m2
01:54 32.4 °F 25.4 °F 30.08 in WNW 2.9 mph 9 mph 75.2% 0.00 in W/m2
01:59 32.2 °F 25.2 °F 30.09 in West 2.4 mph 8 mph 75% 0.00 in W/m2
02:04 32.1 °F 25.1 °F 30.09 in West 2.4 mph 7 mph 75% 0.00 in W/m2
02:09 31.9 °F 24.9 °F 30.09 in West 2.6 mph 7 mph 75% 0.00 in W/m2
02:14 31.7 °F 24.9 °F 30.09 in West 2.2 mph 7 mph 75.8% 0.00 in W/m2
02:19 31.4 °F 24.7 °F 30.09 in WSW 1.7 mph 7 mph 76% 0.00 in W/m2
02:24 31.1 °F 24.4 °F 30.09 in WSW 1.5 mph 6 mph 76% 0.00 in W/m2
02:29 30.9 °F 24.4 °F 30.10 in WSW 1.4 mph 5 mph 76.7% 0.00 in W/m2
02:34 30.6 °F 24.2 °F 30.10 in WSW 1.7 mph 5 mph 77% 0.00 in W/m2
02:39 30.4 °F 24.1 °F 30.10 in WSW 1 mph 5 mph 77% 0.00 in W/m2
02:44 30.2 °F 23.9 °F 30.10 in WSW 0.6 mph 4 mph 77% 0.00 in W/m2
02:49 29.9 °F 23.8 °F 30.10 in WSW 0.7 mph 2 mph 77.8% 0.00 in W/m2
02:54 29.5 °F 23.5 °F 30.11 in WSW 0.9 mph 2 mph 78% 0.00 in W/m2
02:59 29.1 °F 23.2 °F 30.11 in WSW 0.2 mph 2 mph 78.5% 0.00 in W/m2
03:04 28.7 °F 23 °F 30.11 in WSW 0.8 mph 3 mph 79% 0.00 in W/m2
03:09 28.7 °F 23.2 °F 30.11 in WSW 1.2 mph 4 mph 79.7% 0.00 in W/m2
03:14 28.7 °F 23.2 °F 30.11 in SW 1.5 mph 4 mph 79.8% 0.00 in W/m2
03:19 28.7 °F 23.3 °F 30.11 in SW 1.6 mph 4 mph 79.8% 0.00 in W/m2
03:24 28.7 °F 23 °F 30.11 in SW 1.6 mph 4 mph 79.1% 0.00 in W/m2
03:29 28.7 °F 23.2 °F 30.11 in SW 2.2 mph 4 mph 79.7% 0.00 in W/m2
03:34 28.7 °F 23.3 °F 30.12 in WSW 1.5 mph 4 mph 80% 0.00 in W/m2
03:39 28.7 °F 23.3 °F 30.12 in SW 2.3 mph 6 mph 80% 0.00 in W/m2
03:44 28.7 °F 23.3 °F 30.12 in SW 1.6 mph 6 mph 80% 0.00 in W/m2
03:49 28.5 °F 23.1 °F 30.12 in SW 1.7 mph 6 mph 80% 0.00 in W/m2
03:54 28.5 °F 23.1 °F 30.12 in SW 2.3 mph 5 mph 80% 0.00 in W/m2
03:59 28.5 °F 23.1 °F 30.12 in SW 3.1 mph 6 mph 80% 0.00 in W/m2
04:04 28.8 °F 23.4 °F 30.12 in SW 2.7 mph 6 mph 80% 0.00 in W/m2
04:09 29.1 °F 23.7 °F 30.12 in SW 1.7 mph 6 mph 80% 0.00 in W/m2
04:14 29.3 °F 23.9 °F 30.13 in WSW 2.7 mph 7 mph 80% 0.00 in W/m2
04:19 29.5 °F 24.1 °F 30.13 in WSW 2.4 mph 7 mph 80% 0.00 in W/m2
04:24 29.6 °F 24 °F 30.13 in SW 2.2 mph 7 mph 79.2% 0.00 in W/m2
04:29 29.8 °F 24.1 °F 30.13 in SW 3.2 mph 7 mph 79% 0.00 in W/m2
04:34 29.9 °F 24.2 °F 30.14 in SW 2.5 mph 7 mph 79% 0.00 in W/m2
04:39 29.9 °F 24 °F 30.14 in SW 2.9 mph 7 mph 78.5% 0.00 in W/m2
04:44 29.8 °F 23.8 °F 30.14 in SW 2.7 mph 6 mph 78% 0.00 in W/m2
04:49 29.7 °F 23.8 °F 30.14 in SW 2.4 mph 6 mph 78.5% 0.00 in W/m2
04:54 29.7 °F 24 °F 30.14 in SW 2.5 mph 6 mph 79% 0.00 in W/m2
04:59 29.6 °F 23.9 °F 30.14 in SW 2.8 mph 6 mph 79% 0.00 in W/m2
05:04 29.7 °F 24 °F 30.14 in WSW 3 mph 7 mph 79% 0.00 in W/m2
05:09 29.7 °F 24 °F 30.15 in WSW 2.9 mph 7 mph 78.9% 0.00 in W/m2
05:14 29.8 °F 23.8 °F 30.15 in WSW 3.4 mph 7 mph 78% 0.00 in W/m2
05:19 29.9 °F 23.9 °F 30.15 in WSW 3.1 mph 7 mph 78% 0.00 in W/m2
05:24 29.9 °F 23.9 °F 30.15 in SW 3.4 mph 9 mph 78% 0.00 in W/m2
05:29 30 °F 24 °F 30.15 in SW 4 mph 9 mph 78% 0.00 in W/m2
05:34 30.1 °F 24.1 °F 30.15 in WSW 3.6 mph 9 mph 78% 0.00 in W/m2
05:39 30 °F 24 °F 30.15 in WSW 3.8 mph 9 mph 78% 0.00 in W/m2
05:44 30 °F 24 °F 30.16 in WSW 2.8 mph 9 mph 78% 0.00 in W/m2
05:49 29.9 °F 23.9 °F 30.16 in West 4.1 mph 9 mph 78% 0.00 in W/m2
05:54 29.9 °F 23.9 °F 30.16 in West 3 mph 9 mph 78% 0.00 in W/m2
05:59 30 °F 24 °F 30.17 in West 3.9 mph 9 mph 78% 0.00 in W/m2
06:04 30 °F 24 °F 30.17 in West 3.7 mph 7 mph 78% 0.00 in W/m2
06:09 30 °F 24 °F 30.17 in West 3.9 mph 12 mph 78% 0.00 in W/m2
06:14 29.9 °F 23.7 °F 30.18 in West 4.5 mph 12 mph 77.3% 0.00 in W/m2
06:19 29.8 °F 23.5 °F 30.18 in West 4.6 mph 12 mph 77% 0.00 in W/m2
06:24 29.6 °F 23.1 °F 30.18 in West 4.8 mph 11 mph 76.5% 0.00 in W/m2
06:29 29.4 °F 22.8 °F 30.18 in West 3 mph 10 mph 76% 0.00 in W/m2
06:34 29.1 °F 22.5 °F 30.18 in West 3.8 mph 9 mph 76% 0.00 in W/m2
06:39 28.9 °F 22.3 °F 30.18 in West 3.4 mph 8 mph 76% 0.00 in W/m2
06:44 28.6 °F 22 °F 30.18 in WSW 2.8 mph 8 mph 76% 0.00 in W/m2
06:49 28.3 °F 21.7 °F 30.19 in WSW 3 mph 8 mph 76% 0.00 in W/m2
06:54 28.2 °F 21.6 °F 30.19 in West 3.1 mph 8 mph 76% 0.00 in W/m2
06:59 28.2 °F 21.6 °F 30.19 in West 3.9 mph 9 mph 76% 0.00 in W/m2
07:04 28.3 °F 21.5 °F 30.19 in WSW 3.4 mph 9 mph 75.3% 0.00 in W/m2
07:09 28.4 °F 21.5 °F 30.19 in West 2.8 mph 9 mph 75% 0.00 in W/m2
07:14 28.5 °F 21.6 °F 30.19 in WSW 3.4 mph 7 mph 75% 0.00 in W/m2
07:19 28.5 °F 21.4 °F 30.19 in West 3.6 mph 8 mph 74.4% 0.00 in W/m2
07:24 28.5 °F 21.3 °F 30.19 in WSW 3.3 mph 9 mph 74% 0.00 in W/m2
07:29 28.5 °F 21.3 °F 30.19 in WSW 3.9 mph 10 mph 74% 0.00 in W/m2
07:34 28.5 °F 20.9 °F 30.20 in WSW 3.3 mph 10 mph 73% 0.00 in W/m2
07:39 28.4 °F 20.8 °F 30.20 in WSW 3.9 mph 10 mph 73% 0.00 in W/m2
07:44 28.4 °F 20.8 °F 30.20 in WSW 3.7 mph 9 mph 73% 0.00 in W/m2
07:49 28.4 °F 20.8 °F 30.21 in WSW 3.8 mph 9 mph 73% 0.00 in W/m2
07:54 28.5 °F 20.9 °F 30.21 in SW 4.1 mph 9 mph 73% 0.00 in W/m2
07:59 28.5 °F 20.9 °F 30.21 in WSW 3.1 mph 9 mph 72.7% 0.00 in W/m2
08:04 28.7 °F 21 °F 30.22 in WSW 3.8 mph 9 mph 72.7% 0.00 in W/m2
08:09 28.9 °F 21 °F 30.22 in West 2 mph 10 mph 72.2% 0.00 in W/m2
08:14 29 °F 21.1 °F 30.22 in WSW 4.8 mph 10 mph 72% 0.00 in W/m2
08:19 29 °F 21.1 °F 30.22 in WSW 4.3 mph 10 mph 72% 0.00 in W/m2
08:24 29.1 °F 21.2 °F 30.23 in WSW 3.6 mph 9 mph 72% 0.00 in W/m2
08:29 29.1 °F 21.2 °F 30.23 in WSW 4 mph 8 mph 72% 0.00 in W/m2
08:34 29.2 °F 21.3 °F 30.23 in West 3.5 mph 11 mph 72% 0.00 in W/m2
08:39 29.3 °F 21.1 °F 30.23 in West 3.7 mph 11 mph 71.1% 0.00 in W/m2
08:44 29.8 °F 21.4 °F 30.24 in WSW 3.9 mph 11 mph 70.5% 0.00 in W/m2
08:49 30.1 °F 21.2 °F 30.24 in WSW 4.4 mph 9 mph 69% 0.00 in W/m2
08:54 30.3 °F 21.1 °F 30.24 in West 4.6 mph 10 mph 68.3% 0.00 in W/m2
08:59 30.3 °F 21 °F 30.24 in WSW 4.6 mph 11 mph 67.9% 0.00 in W/m2
09:04 30.6 °F 21 °F 30.24 in WSW 4.6 mph 12 mph 67.3% 0.00 in W/m2
09:09 30.9 °F 20.9 °F 30.24 in West 5.6 mph 12 mph 66.3% 0.00 in W/m2
09:14 30.9 °F 20.9 °F 30.24 in West 5.3 mph 12 mph 65.8% 0.00 in W/m2
09:19 31 °F 20.6 °F 30.25 in West 4.7 mph 12 mph 65.2% 0.00 in W/m2
09:24 30.8 °F 20.4 °F 30.25 in WNW 4.5 mph 12 mph 65% 0.00 in W/m2
09:29 30.7 °F 20.7 °F 30.25 in WSW 5.4 mph 13 mph 66.1% 0.00 in W/m2
09:34 31.4 °F 20.9 °F 30.25 in West 5.3 mph 13 mph 64.8% 0.00 in W/m2
09:39 31.7 °F 20.9 °F 30.25 in West 4.6 mph 18 mph 64% 0.00 in W/m2
09:44 31.7 °F 20.7 °F 30.25 in West 5.7 mph 18 mph 63.4% 0.00 in W/m2
09:49 31.3 °F 20.3 °F 30.25 in West 5.6 mph 18 mph 63.5% 0.00 in W/m2
09:54 31.2 °F 20.6 °F 30.25 in West 5.1 mph 12 mph 64.5% 0.00 in W/m2
09:59 31.7 °F 20.9 °F 30.25 in West 5.6 mph 12 mph 64% 0.00 in W/m2
10:04 31.8 °F 20.8 °F 30.25 in West 5 mph 15 mph 63.4% 0.00 in W/m2
10:09 32.1 °F 21 °F 30.26 in West 5.6 mph 15 mph 63.3% 0.00 in W/m2
10:14 32.2 °F 21 °F 30.26 in West 4.8 mph 15 mph 63.2% 0.00 in W/m2
10:19 32.6 °F 21.5 °F 30.25 in West 4.4 mph 11 mph 63.1% 0.00 in W/m2
10:24 32.4 °F 21 °F 30.26 in West 5.5 mph 10 mph 62.5% 0.00 in W/m2
10:29 31.9 °F 20.9 °F 30.26 in WNW 5.2 mph 11 mph 63.4% 0.00 in W/m2
10:34 31.4 °F 20.6 °F 30.26 in West 4.6 mph 11 mph 64.1% 0.00 in W/m2
10:39 32.1 °F 21.2 °F 30.26 in WSW 5.6 mph 14 mph 63.8% 0.00 in W/m2
10:44 33 °F 21.3 °F 30.27 in WNW 4.6 mph 14 mph 61.8% 0.00 in W/m2
10:49 33.3 °F 21.2 °F 30.27 in West 4.6 mph 14 mph 61% 0.00 in W/m2
10:54 33.5 °F 21.6 °F 30.27 in West 3.8 mph 11 mph 61.4% 0.00 in W/m2
10:59 33.5 °F 21.2 °F 30.27 in West 5.3 mph 12 mph 60.3% 0.00 in W/m2
11:04 33.1 °F 21 °F 30.27 in West 4.8 mph 12 mph 60.7% 0.00 in W/m2
11:09 33.2 °F 21.2 °F 30.27 in West 5.1 mph 12 mph 61.2% 0.00 in W/m2
11:14 33.2 °F 21.3 °F 30.27 in WSW 4.9 mph 11 mph 61.2% 0.00 in W/m2
11:19 33 °F 21 °F 30.27 in WSW 6.1 mph 11 mph 60.9% 0.00 in W/m2
11:24 32.5 °F 20.8 °F 30.28 in WNW 4.9 mph 11 mph 61.6% 0.00 in W/m2
11:29 32.7 °F 21 °F 30.28 in West 4.5 mph 11 mph 61.7% 0.00 in W/m2
11:34 32.9 °F 20.9 °F 30.28 in SW 5.9 mph 11 mph 61.2% 0.00 in W/m2
11:39 32.8 °F 20.5 °F 30.28 in WSW 4.8 mph 11 mph 60.3% 0.00 in W/m2
11:44 33 °F 20.7 °F 30.28 in West 5.4 mph 11 mph 60.2% 0.00 in W/m2
11:49 32.9 °F 20.8 °F 30.28 in WSW 3.1 mph 11 mph 60.7% 0.00 in W/m2
11:54 33.3 °F 20.9 °F 30.28 in WNW 4.7 mph 9 mph 60.1% 0.00 in W/m2
11:59 33.2 °F 20.4 °F 30.28 in West 4.7 mph 12 mph 59.1% 0.00 in W/m2
12:04 33.3 °F 21 °F 30.28 in WSW 4 mph 12 mph 60.2% 0.00 in W/m2
12:09 33.3 °F 21 °F 30.28 in WSW 4.4 mph 12 mph 60.3% 0.00 in W/m2
12:14 33.8 °F 21.9 °F 30.28 in SW 3.3 mph 9 mph 61.5% 0.00 in W/m2
12:19 34.4 °F 21.7 °F 30.27 in WSW 4.1 mph 10 mph 59.4% 0.00 in W/m2
12:24 34.6 °F 21.6 °F 30.27 in WNW 3.9 mph 10 mph 58.7% 0.00 in W/m2
12:29 34.9 °F 21.8 °F 30.27 in West 3.8 mph 10 mph 58.6% 0.00 in W/m2
12:34 34.8 °F 21.8 °F 30.27 in WSW 3.4 mph 9 mph 58.7% 0.00 in W/m2
12:39 35.1 °F 21.8 °F 30.27 in WSW 4.5 mph 11 mph 58% 0.00 in W/m2
12:44 35 °F 21.7 °F 30.27 in West 5.4 mph 11 mph 57.8% 0.00 in W/m2
12:49 34.8 °F 21.5 °F 30.27 in WSW 3.2 mph 11 mph 58.2% 0.00 in W/m2
12:54 35.2 °F 21.6 °F 30.27 in SW 5.6 mph 11 mph 57.2% 0.00 in W/m2
12:59 34.9 °F 21.6 °F 30.27 in West 4.4 mph 11 mph 57.9% 0.00 in W/m2
13:04 34.9 °F 21.6 °F 30.27 in SW 5 mph 11 mph 57.9% 0.00 in W/m2
13:09 35.1 °F 21.5 °F 30.27 in WSW 4.5 mph 9 mph 57.1% 0.00 in W/m2
13:14 35.5 °F 21.5 °F 30.27 in WSW 3.5 mph 9 mph 56.3% 0.00 in W/m2
13:19 35.6 °F 21.1 °F 30.27 in WSW 4.3 mph 11 mph 55.3% 0.00 in W/m2
13:24 35.2 °F 20.7 °F 30.26 in WSW 5.4 mph 12 mph 55.2% 0.00 in W/m2
13:29 36.1 °F 21.5 °F 30.26 in WSW 2.7 mph 12 mph 55.2% 0.00 in W/m2
13:34 36.4 °F 22 °F 30.26 in WNW 4.3 mph 12 mph 55.4% 0.00 in W/m2
13:39 36.3 °F 21.7 °F 30.26 in WSW 5.5 mph 11 mph 54.9% 0.00 in W/m2
13:44 35.8 °F 21.1 °F 30.26 in WSW 4.1 mph 11 mph 54.7% 0.00 in W/m2
13:49 36.1 °F 20.7 °F 30.26 in WSW 4 mph 11 mph 53.2% 0.00 in W/m2
13:54 36.4 °F 21.2 °F 30.26 in West 4.2 mph 11 mph 53.8% 0.00 in W/m2
13:59 36.2 °F 21.2 °F 30.26 in West 5.5 mph 11 mph 54.3% 0.00 in W/m2
14:04 36 °F 21.4 °F 30.26 in West 5.5 mph 13 mph 55.1% 0.00 in W/m2
14:09 35.7 °F 20.8 °F 30.26 in WSW 5.1 mph 13 mph 54.3% 0.00 in W/m2
14:14 35.6 °F 20.7 °F 30.26 in WSW 4.2 mph 13 mph 54.2% 0.00 in W/m2
14:19 36 °F 21.3 °F 30.26 in WSW 5.2 mph 10 mph 54.7% 0.00 in W/m2
14:24 36 °F 20.8 °F 30.26 in WSW 5.4 mph 12 mph 53.5% 0.00 in W/m2
14:29 36 °F 21.3 °F 30.26 in West 2.3 mph 12 mph 54.6% 0.00 in W/m2
14:34 36.8 °F 21.6 °F 30.26 in WSW 4 mph 12 mph 53.7% 0.00 in W/m2
14:39 36.7 °F 21.4 °F 30.26 in West 4.6 mph 9 mph 53.3% 0.00 in W/m2
14:44 36.3 °F 20.7 °F 30.26 in WSW 4.4 mph 10 mph 52.7% 0.00 in W/m2
14:49 36.4 °F 20.5 °F 30.26 in WSW 4.6 mph 14 mph 52.3% 0.00 in W/m2
14:54 36.1 °F 20.5 °F 30.26 in West 3.6 mph 14 mph 52.7% 0.00 in W/m2
14:59 35.9 °F 20.5 °F 30.26 in SW 2.8 mph 14 mph 53.2% 0.00 in W/m2
15:04 36.1 °F 21.2 °F 30.26 in SW 5 mph 10 mph 54.3% 0.00 in W/m2
15:09 35.9 °F 21.9 °F 30.26 in WSW 4 mph 10 mph 56.4% 0.00 in W/m2
15:14 35.9 °F 21.1 °F 30.26 in West 4.4 mph 10 mph 54.4% 0.00 in W/m2
15:19 35.7 °F 20.9 °F 30.26 in SW 4.4 mph 10 mph 54.5% 0.00 in W/m2
15:29 35.4 °F 22.6 °F 30.27 in WSW 4 mph 11 mph 59.4% 0.00 in W/m2
15:34 34.9 °F 23.2 °F 30.26 in SW 5 mph 11 mph 62% 0.00 in W/m2
15:39 34.8 °F 22.9 °F 30.26 in SW 5.1 mph 12 mph 61.6% 0.00 in W/m2
15:49 34.9 °F 22.8 °F 30.26 in SW 4.5 mph 12 mph 60.9% 0.00 in W/m2
15:54 34.6 °F 23 °F 30.26 in SSW 4 mph 10 mph 62.2% 0.00 in W/m2
15:59 34.3 °F 23.4 °F 30.26 in SW 5.3 mph 10 mph 63.8% 0.00 in W/m2
16:04 33.8 °F 23 °F 30.26 in SW 4 mph 9 mph 64.3% 0.00 in W/m2
16:09 33.7 °F 23.6 °F 30.27 in SW 3.8 mph 9 mph 66% 0.00 in W/m2
16:14 33.8 °F 23.5 °F 30.27 in SW 5.5 mph 9 mph 65.7% 0.00 in W/m2
16:19 33.6 °F 23.5 °F 30.27 in SW 5 mph 11 mph 66% 0.00 in W/m2
16:24 33.3 °F 23.2 °F 30.27 in SW 4.5 mph 11 mph 66% 0.00 in W/m2
16:29 33 °F 23.1 °F 30.27 in SW 5.1 mph 11 mph 66.7% 0.00 in W/m2
16:34 33 °F 23.4 °F 30.27 in SW 3.8 mph 10 mph 67.5% 0.00 in W/m2
16:39 32.9 °F 23.5 °F 30.27 in SW 4.4 mph 10 mph 68% 0.00 in W/m2
16:44 32.8 °F 23.4 °F 30.27 in SW 5.2 mph 12 mph 68% 0.00 in W/m2
16:49 32.4 °F 23.2 °F 30.27 in SW 4.3 mph 12 mph 68.3% 0.00 in W/m2
16:54 32 °F 23.1 °F 30.27 in SSW 4.3 mph 12 mph 69.4% 0.00 in W/m2
16:59 31.5 °F 22.8 °F 30.28 in SW 4.7 mph 12 mph 70% 0.00 in W/m2
17:04 31.4 °F 23 °F 30.28 in SW 5 mph 12 mph 70.7% 0.00 in W/m2
17:09 31.4 °F 23.1 °F 30.28 in SW 4.1 mph 12 mph 71% 0.00 in W/m2
17:14 31.4 °F 23.2 °F 30.27 in SSW 3.9 mph 12 mph 71.2% 0.00 in W/m2
17:19 31.4 °F 23.3 °F 30.27 in SSW 3 mph 12 mph 71.8% 0.00 in W/m2
17:24 31.1 °F 23.1 °F 30.27 in SW 3.4 mph 12 mph 72% 0.00 in W/m2
17:29 30.8 °F 22.8 °F 30.28 in SSW 4.1 mph 9 mph 72.1% 0.00 in W/m2
17:34 30.5 °F 22.9 °F 30.28 in SW 4.3 mph 9 mph 73% 0.00 in W/m2
17:39 30.4 °F 23 °F 30.28 in SW 4.8 mph 9 mph 73.6% 0.00 in W/m2
17:44 30.3 °F 23 °F 30.28 in SW 5.1 mph 10 mph 74% 0.00 in W/m2
17:49 30.3 °F 23 °F 30.28 in SSW 4.3 mph 11 mph 74% 0.00 in W/m2
17:54 30.3 °F 23 °F 30.28 in SSW 4.2 mph 11 mph 74% 0.00 in W/m2
17:59 30.2 °F 22.9 °F 30.29 in SW 4.7 mph 11 mph 74% 0.00 in W/m2
18:04 30.1 °F 22.8 °F 30.29 in SW 4.5 mph 10 mph 74% 0.00 in W/m2
18:09 29.9 °F 22.6 °F 30.29 in SW 3.1 mph 10 mph 74% 0.00 in W/m2
18:14 29.7 °F 22.5 °F 30.29 in SW 4.2 mph 9 mph 74.4% 0.00 in W/m2
18:19 29.6 °F 22.6 °F 30.29 in SW 4.6 mph 10 mph 75% 0.00 in W/m2
18:24 29.4 °F 22.5 °F 30.29 in SW 3.9 mph 10 mph 75% 0.00 in W/m2
18:28 29.4 °F 22.5 °F 30.29 in SW 3.8 mph 10 mph 75.1% 0.00 in W/m2
18:34 29.2 °F 22.6 °F 30.30 in SW 3.9 mph 9 mph 76% 0.00 in W/m2
18:39 29.1 °F 22.5 °F 30.30 in SW 3.8 mph 9 mph 76% 0.00 in W/m2
18:44 28.9 °F 22.6 °F 30.30 in SW 3.7 mph 9 mph 76.9% 0.00 in W/m2
18:49 28.8 °F 22.5 °F 30.30 in SW 3.6 mph 9 mph 77% 0.00 in W/m2
18:54 28.7 °F 22.4 °F 30.30 in SSW 3.8 mph 9 mph 77% 0.00 in W/m2
18:59 28.6 °F 22.5 °F 30.30 in SSW 3.1 mph 9 mph 77.8% 0.00 in W/m2
19:04 28.5 °F 22.5 °F 30.30 in SSW 3.7 mph 9 mph 78% 0.00 in W/m2
19:09 28.4 °F 22.4 °F 30.30 in SW 3.4 mph 7 mph 78% 0.00 in W/m2
19:14 28.3 °F 22.3 °F 30.30 in SSW 3.6 mph 7 mph 78% 0.00 in W/m2
Lockport, New York, USA
Compliments of Weather Underground - 2.25 mb